Time;durP1;ratioP1;P1;durP2;ratioP2;P2;SDS_P1;SDS_P2;PMS_P1;PMS_P2;Temp;Humidity;BMP_temperature;BMP_pressure;BME280_temperature;BME280_humidity;BME280_pressure;Samples;Min_cycle;Max_cycle;Signal;HPM_P1;HPM_P2
2022/04/03 00:01:13;;;;;;;14.43;5.72;;;3.00;99.90;;;;;;4904757;29;20066;-82
2022/04/03 00:03:39;;;;;;;17.98;6.28;;;3.00;99.90;;;;;;4905877;29;20033;-83
2022/04/03 00:06:05;;;;;;;14.73;5.38;;;3.00;99.90;;;;;;4907776;29;20469;-83
2022/04/03 00:08:31;;;;;;;19.02;5.18;;;3.10;99.90;;;;;;4905446;29;20036;-84
2022/04/03 00:10:57;;;;;;;18.50;5.15;;;3.10;99.90;;;;;;4909280;29;20084;-82
2022/04/03 00:13:23;;;;;;;19.48;5.35;;;3.10;99.90;;;;;;4915208;29;20071;-83
2022/04/03 00:15:49;;;;;;;20.40;4.70;;;3.20;99.90;;;;;;4903362;29;20488;-84
2022/04/03 00:18:15;;;;;;;21.33;4.68;;;3.20;99.90;;;;;;4902882;29;20548;-82
2022/04/03 00:20:41;;;;;;;27.60;4.95;;;3.20;99.90;;;;;;4888764;29;20032;-82
2022/04/03 00:23:08;;;;;;;21.27;5.07;;;3.20;99.90;;;;;;4903402;29;20072;-85
2022/04/03 00:25:35;;;;;;;13.82;4.25;;;3.20;99.90;;;;;;4909302;29;20048;-83
2022/04/03 00:28:01;;;;;;;26.83;5.10;;;3.30;99.90;;;;;;4912823;29;20029;-80
2022/04/03 00:30:27;;;;;;;18.48;4.53;;;3.30;99.90;;;;;;4909080;29;20035;-82
2022/04/03 00:32:53;;;;;;;12.95;4.53;;;3.30;99.90;;;;;;4907924;29;20032;-83
2022/04/03 00:35:20;;;;;;;17.77;4.40;;;3.30;99.90;;;;;;4908304;29;20033;-80
2022/04/03 00:37:46;;;;;;;19.80;4.85;;;3.40;99.90;;;;;;4907371;29;20037;-83
2022/04/03 00:40:13;;;;;;;19.08;6.05;;;3.40;99.90;;;;;;4890615;29;20573;-82
2022/04/03 00:42:39;;;;;;;14.85;5.13;;;3.40;99.90;;;;;;4906459;29;20369;-82
2022/04/03 00:45:06;;;;;;;15.52;6.35;;;3.40;99.90;;;;;;4906863;29;20043;-83
2022/04/03 00:47:33;;;;;;;15.85;5.68;;;3.40;99.90;;;;;;4907961;29;20485;-83
2022/04/03 00:50:00;;;;;;;13.50;6.43;;;3.40;99.90;;;;;;4909309;29;20404;-82
2022/04/03 00:52:27;;;;;;;19.40;6.43;;;3.30;99.90;;;;;;4909345;29;20084;-84
2022/04/03 00:54:53;;;;;;;22.92;6.75;;;3.20;99.90;;;;;;4911937;29;20009;-83
2022/04/03 00:57:23;;;;;;;16.45;5.82;;;3.10;99.90;;;;;;4895253;29;20041;-82
2022/04/03 00:59:49;;;;;;;18.25;6.80;;;3.10;99.90;;;;;;4907561;29;20028;-83
2022/04/03 01:02:16;;;;;;;12.77;6.72;;;3.10;99.90;;;;;;4907304;29;20115;-84
2022/04/03 01:04:42;;;;;;;16.35;6.78;;;3.10;99.90;;;;;;4906019;29;20029;-81
2022/04/03 01:07:08;;;;;;;14.95;6.72;;;3.10;99.90;;;;;;4903172;29;20032;-84
2022/04/03 01:09:34;;;;;;;14.82;6.78;;;3.00;99.90;;;;;;4905173;29;20043;-81
2022/04/03 01:12:00;;;;;;;16.25;7.90;;;3.00;99.90;;;;;;4904484;29;20029;-81
2022/04/03 01:14:36;;;;;;;16.98;6.80;;;3.00;99.90;;;;;;4903512;29;20021;-82
2022/04/03 01:17:03;;;;;;;16.42;7.20;;;3.00;99.90;;;;;;4903214;29;20496;-85
2022/04/03 01:19:29;;;;;;;14.20;8.15;;;3.00;99.90;;;;;;4904686;29;20036;-82
2022/04/03 01:21:55;;;;;;;19.33;7.55;;;3.00;99.90;;;;;;4904637;29;20497;-83
2022/04/03 01:24:22;;;;;;;15.05;7.50;;;3.00;99.90;;;;;;4913106;29;20032;-83
2022/04/03 01:26:48;;;;;;;20.70;7.93;;;3.00;99.90;;;;;;4912856;29;20064;-82
2022/04/03 01:29:17;;;;;;;16.52;8.30;;;3.00;99.90;;;;;;4920800;29;20080;-82
2022/04/03 01:31:44;;;;;;;20.88;8.05;;;2.90;99.90;;;;;;4915015;29;20092;-82
2022/04/03 01:34:10;;;;;;;23.40;9.27;;;2.90;99.90;;;;;;4913956;29;20040;-81
2022/04/03 01:36:36;;;;;;;18.35;8.57;;;2.90;99.90;;;;;;4911328;29;20059;-83
2022/04/03 01:39:03;;;;;;;14.65;8.65;;;2.90;99.90;;;;;;4902926;29;20485;-82
2022/04/03 01:41:29;;;;;;;23.50;9.27;;;2.90;99.90;;;;;;4905515;29;20100;-84
2022/04/03 01:43:55;;;;;;;16.35;8.65;;;2.90;99.90;;;;;;4912629;29;20052;-82
2022/04/03 01:46:20;;;;;;;19.30;9.05;;;2.90;99.90;;;;;;4914065;29;20028;-82
2022/04/03 01:48:46;;;;;;;17.00;7.93;;;2.90;99.90;;;;;;4914187;29;20028;-82
2022/04/03 01:51:12;;;;;;;18.20;7.97;;;2.90;99.90;;;;;;4914859;29;20044;-82
2022/04/03 01:53:38;;;;;;;20.17;8.50;;;2.90;99.90;;;;;;4914205;29;20485;-82
2022/04/03 01:56:06;;;;;;;15.05;7.85;;;2.90;99.90;;;;;;4915736;29;20496;-82
2022/04/03 01:58:33;;;;;;;13.50;8.13;;;2.90;99.90;;;;;;4914230;29;20035;-82
2022/04/03 02:01:00;;;;;;;15.80;8.40;;;2.90;99.90;;;;;;4913876;29;20543;-82
2022/04/03 02:03:26;;;;;;;16.08;7.95;;;2.90;99.90;;;;;;4912819;29;20096;-82
2022/04/03 02:05:53;;;;;;;17.77;8.57;;;2.90;99.90;;;;;;4915111;29;20029;-82
2022/04/03 02:08:19;;;;;;;15.63;8.23;;;2.90;99.90;;;;;;4920148;29;20532;-80
2022/04/03 02:10:46;;;;;;;12.35;7.05;;;2.90;99.90;;;;;;4913117;29;20140;-81
2022/04/03 02:13:12;;;;;;;14.43;8.02;;;2.90;99.90;;;;;;4911629;29;20039;-82
2022/04/03 02:15:39;;;;;;;13.43;7.18;;;2.90;99.90;;;;;;4914358;29;20088;-82
2022/04/03 02:18:05;;;;;;;17.33;8.30;;;2.90;99.90;;;;;;4915240;29;20047;-80
2022/04/03 02:20:34;;;;;;;15.48;7.30;;;2.90;99.90;;;;;;4915552;29;20319;-82
2022/04/03 02:22:59;;;;;;;18.80;8.00;;;2.90;99.90;;;;;;4914679;29;20012;-81
2022/04/03 02:25:25;;;;;;;13.80;7.35;;;2.90;99.90;;;;;;4916470;29;20060;-81
2022/04/03 02:27:52;;;;;;;18.70;7.35;;;2.80;99.90;;;;;;4916222;29;20033;-81
2022/04/03 02:30:18;;;;;;;22.05;7.20;;;2.90;99.90;;;;;;4914896;29;20037;-81
2022/04/03 02:32:45;;;;;;;14.82;7.63;;;2.90;99.90;;;;;;4916183;29;20084;-79
2022/04/03 02:35:13;;;;;;;13.27;7.10;;;2.90;99.90;;;;;;4914325;29;20035;-83
2022/04/03 02:37:40;;;;;;;15.38;6.57;;;2.90;99.90;;;;;;4912438;29;20025;-82
2022/04/03 02:40:08;;;;;;;13.10;7.32;;;2.90;99.90;;;;;;4911704;29;20389;-82
2022/04/03 02:42:34;;;;;;;18.00;6.43;;;2.90;99.90;;;;;;4909003;29;20028;-82
2022/04/03 02:45:00;;;;;;;13.98;6.68;;;2.90;99.90;;;;;;4914724;29;20063;-82
2022/04/03 02:47:26;;;;;;;14.13;6.25;;;2.90;99.90;;;;;;4921009;29;20036;-82
2022/04/03 02:49:51;;;;;;;18.15;5.93;;;2.90;99.90;;;;;;4917217;29;20052;-81
2022/04/03 02:52:19;;;;;;;15.80;5.97;;;2.90;99.90;;;;;;4920764;29;20032;-80
2022/04/03 02:54:45;;;;;;;18.90;6.07;;;2.90;99.90;;;;;;4923282;29;20037;-82
2022/04/03 02:57:12;;;;;;;12.60;4.95;;;2.90;99.90;;;;;;4922701;29;20080;-81
2022/04/03 02:59:38;;;;;;;15.18;5.28;;;2.90;99.90;;;;;;4922454;29;20028;-81
2022/04/03 03:02:04;;;;;;;16.10;5.68;;;2.90;99.90;;;;;;4924754;29;20100;-83
2022/04/03 03:04:31;;;;;;;13.98;4.53;;;2.90;99.90;;;;;;4924955;29;20063;-81
2022/04/03 03:06:57;;;;;;;12.02;4.78;;;3.00;99.90;;;;;;4924383;29;20044;-80
2022/04/03 03:09:23;;;;;;;20.98;5.13;;;3.00;99.90;;;;;;4924726;29;20025;-81
2022/04/03 03:11:49;;;;;;;30.60;4.88;;;3.00;99.90;;;;;;4924714;29;20064;-82
2022/04/03 03:14:16;;;;;;;10.18;4.47;;;3.00;99.90;;;;;;4922334;29;20052;-81
2022/04/03 03:16:42;;;;;;;9.82;5.30;;;3.00;99.90;;;;;;4919782;29;20032;-82
2022/04/03 03:19:11;;;;;;;20.88;5.22;;;2.90;99.90;;;;;;4920747;29;20028;-81
2022/04/03 03:21:38;;;;;;;16.75;5.40;;;2.90;99.90;;;;;;4921489;29;20028;-81
2022/04/03 03:24:04;;;;;;;14.63;5.07;;;2.90;99.90;;;;;;4922398;29;20072;-80
2022/04/03 03:26:30;;;;;;;14.15;4.65;;;2.80;99.90;;;;;;4918421;29;20084;-83
2022/04/03 03:28:56;;;;;;;10.75;4.95;;;2.90;99.90;;;;;;4916696;29;20025;-82
2022/04/03 03:31:22;;;;;;;9.45;4.57;;;2.80;99.90;;;;;;4916419;29;20084;-82
2022/04/03 03:33:48;;;;;;;15.23;5.13;;;2.80;99.90;;;;;;4902215;29;20024;-81
2022/04/03 03:36:14;;;;;;;15.25;5.53;;;2.80;99.90;;;;;;4915925;29;20033;-83
2022/04/03 03:38:40;;;;;;;15.15;5.18;;;2.90;99.90;;;;;;4909471;29;20111;-82
2022/04/03 03:41:06;;;;;;;15.02;5.35;;;2.80;99.90;;;;;;4917408;29;20025;-82
2022/04/03 03:43:32;;;;;;;11.90;4.57;;;2.80;99.90;;;;;;4916653;29;20070;-81
2022/04/03 03:45:59;;;;;;;13.85;5.50;;;2.70;99.90;;;;;;4915236;29;20037;-81
2022/04/03 03:48:25;;;;;;;15.98;5.45;;;2.70;99.90;;;;;;4914547;29;20043;-81
2022/04/03 03:50:51;;;;;;;9.57;4.60;;;2.70;99.90;;;;;;4915949;29;20028;-81
2022/04/03 03:53:18;;;;;;;13.50;5.25;;;2.70;99.90;;;;;;4917243;29;20091;-82
2022/04/03 03:55:44;;;;;;;13.50;5.05;;;2.70;99.90;;;;;;4916180;29;20024;-82
2022/04/03 03:58:10;;;;;;;14.60;5.05;;;2.60;99.90;;;;;;4916358;29;20036;-81
2022/04/03 04:00:35;;;;;;;15.07;4.45;;;2.60;99.90;;;;;;4918538;29;20035;-82
2022/04/03 04:03:02;;;;;;;11.20;4.28;;;2.50;99.90;;;;;;4918383;29;20035;-82
2022/04/03 04:05:28;;;;;;;13.00;4.90;;;2.50;99.90;;;;;;4914068;29;20039;-83
2022/04/03 04:07:53;;;;;;;16.67;5.20;;;2.50;99.90;;;;;;4915261;29;20040;-82
2022/04/03 04:10:19;;;;;;;11.80;4.95;;;2.50;99.90;;;;;;4930009;23;20050;-86
2022/04/03 04:12:47;;;;;;;14.15;5.65;;;2.40;99.90;;;;;;4912065;29;20084;-87
2022/04/03 04:15:14;;;;;;;15.82;5.15;;;2.40;99.90;;;;;;4911702;29;20025;-85
2022/04/03 04:17:45;;;;;;;11.82;5.20;;;2.30;99.90;;;;;;4911672;29;20056;-86
2022/04/03 04:20:16;;;;;;;11.65;5.35;;;2.30;99.90;;;;;;4911538;29;20424;-88
2022/04/03 04:22:44;;;;;;;15.25;5.38;;;2.30;99.90;;;;;;4910530;29;20033;-87
2022/04/03 04:25:11;;;;;;;11.82;5.10;;;2.20;99.90;;;;;;4919425;29;20182;-85
2022/04/03 04:27:38;;;;;;;11.20;4.90;;;2.20;99.90;;;;;;4913804;29;20108;-85
2022/04/03 04:30:04;;;;;;;17.70;5.05;;;2.30;99.90;;;;;;4914970;29;20492;-85
2022/04/03 04:32:32;;;;;;;8.75;5.13;;;2.30;99.90;;;;;;4910529;29;20039;-85
2022/04/03 04:34:58;;;;;;;17.88;4.75;;;2.30;99.90;;;;;;4906427;29;20032;-87
2022/04/03 04:37:24;;;;;;;14.90;5.50;;;2.30;99.90;;;;;;4918736;29;20029;-84
2022/04/03 04:39:50;;;;;;;12.80;4.88;;;2.30;99.90;;;;;;4915213;29;20035;-86
2022/04/03 04:42:16;;;;;;;10.48;5.40;;;2.40;99.90;;;;;;4916199;29;20085;-86
2022/04/03 04:44:43;;;;;;;14.27;5.82;;;2.30;99.90;;;;;;4913540;29;20107;-87
2022/04/03 04:47:09;;;;;;;9.55;4.75;;;2.30;99.90;;;;;;4912469;29;20044;-87
2022/04/03 04:49:35;;;;;;;10.07;4.55;;;2.30;99.90;;;;;;4916039;29;20199;-86
2022/04/03 04:52:01;;;;;;;14.35;4.93;;;2.30;99.90;;;;;;4915830;29;20048;-87
2022/04/03 04:54:27;;;;;;;11.10;5.28;;;2.40;99.90;;;;;;4914058;29;20052;-87
2022/04/03 04:56:53;;;;;;;17.95;5.65;;;2.30;99.90;;;;;;4915941;29;20064;-86
2022/04/03 04:59:19;;;;;;;10.73;5.13;;;2.30;99.90;;;;;;4912730;29;20096;-87
2022/04/03 05:01:45;;;;;;;12.93;5.20;;;2.30;99.90;;;;;;4921070;29;20041;-86
2022/04/03 05:04:11;;;;;;;18.65;5.50;;;2.30;99.90;;;;;;4917596;29;20028;-86
2022/04/03 05:06:38;;;;;;;15.73;5.15;;;2.30;99.90;;;;;;4917575;29;20054;-85
2022/04/03 05:09:05;;;;;;;9.20;4.22;;;2.30;99.90;;;;;;4916306;29;20078;-86
2022/04/03 05:11:32;;;;;;;11.95;5.22;;;2.20;99.90;;;;;;4915871;29;20127;-87
2022/04/03 05:13:58;;;;;;;11.63;4.95;;;2.30;99.90;;;;;;4918038;29;20025;-86
2022/04/03 05:16:25;;;;;;;14.38;5.07;;;2.30;99.90;;;;;;4932365;29;20028;-88
2022/04/03 05:18:52;;;;;;;10.05;4.78;;;2.30;99.90;;;;;;4930389;29;20052;-87
2022/04/03 05:21:18;;;;;;;11.52;4.97;;;2.30;99.90;;;;;;4932162;29;20088;-87
2022/04/03 05:23:44;;;;;;;12.43;4.75;;;2.30;99.90;;;;;;4933443;29;20032;-88
2022/04/03 05:26:10;;;;;;;9.75;4.30;;;2.30;99.90;;;;;;4913178;29;20488;-87
2022/04/03 05:28:37;;;;;;;14.13;4.75;;;2.30;99.90;;;;;;4911822;29;20039;-87
2022/04/03 05:31:03;;;;;;;7.95;4.30;;;2.40;99.90;;;;;;4927076;29;20405;-87
2022/04/03 05:33:29;;;;;;;14.02;5.10;;;2.40;99.90;;;;;;4926503;29;20058;-86
2022/04/03 05:35:55;;;;;;;25.58;4.88;;;2.40;99.90;;;;;;4935883;29;20056;-87
2022/04/03 05:38:21;;;;;;;15.23;4.60;;;2.40;99.90;;;;;;4935239;29;20032;-87
2022/04/03 05:40:46;;;;;;;20.30;4.82;;;2.40;99.90;;;;;;4936254;29;20115;-88
2022/04/03 05:43:12;;;;;;;14.40;4.53;;;2.40;99.90;;;;;;4931536;29;20560;-89
2022/04/03 05:45:38;;;;;;;10.30;3.92;;;2.40;99.90;;;;;;4937723;29;20067;-87
2022/04/03 05:48:08;;;;;;;11.82;4.20;;;2.50;99.90;;;;;;4929119;29;20032;-89
2022/04/03 05:50:38;;;;;;;18.40;4.40;;;2.50;99.90;;;;;;4933239;29;20020;-91
2022/04/03 05:53:05;;;;;;;13.02;4.57;;;2.40;99.90;;;;;;4934915;29;20032;-92
2022/04/03 05:55:36;;;;;;;14.63;4.47;;;2.50;99.90;;;;;;4921970;29;20020;-90
2022/04/03 05:58:02;;;;;;;12.32;4.55;;;2.60;99.90;;;;;;4923467;29;20033;-90
2022/04/03 06:00:29;;;;;;;11.93;3.97;;;2.50;99.90;;;;;;4921348;29;20031;-90
2022/04/03 06:03:00;;;;;;;19.70;4.70;;;2.50;99.90;;;;;;4900626;29;20032;-91
2022/04/03 06:05:32;;;;;;;15.18;4.47;;;2.50;99.90;;;;;;4906264;29;20100;-91
2022/04/03 06:07:58;;;;;;;14.35;4.88;;;2.60;99.90;;;;;;4928479;23;20043;-92
2022/04/03 06:10:25;;;;;;;13.98;4.38;;;2.60;99.90;;;;;;4907704;29;20028;-91
2022/04/03 06:13:02;;;;;;;11.93;4.60;;;2.70;99.90;;;;;;4925456;29;20092;-91
2022/04/03 06:15:33;;;;;;;10.95;4.45;;;2.70;99.90;;;;;;4925486;29;20021;-93
2022/04/03 06:18:00;;;;;;;12.15;4.70;;;2.70;99.90;;;;;;4915690;29;20022;-91
2022/04/03 06:20:26;;;;;;;18.10;4.50;;;2.70;99.90;;;;;;4910838;29;20036;-88
2022/04/03 06:22:52;;;;;;;14.50;4.63;;;2.70;99.90;;;;;;4924786;29;20045;-88
2022/04/03 06:25:18;;;;;;;16.48;4.22;;;2.80;99.90;;;;;;4931687;29;20405;-87
2022/04/03 06:27:44;;;;;;;12.45;4.32;;;2.80;99.90;;;;;;4925825;29;20028;-89
2022/04/03 06:30:10;;;;;;;11.70;4.57;;;2.80;99.90;;;;;;4925649;29;20045;-87
2022/04/03 06:32:37;;;;;;;12.48;4.88;;;2.70;99.90;;;;;;4939176;29;20044;-86
2022/04/03 06:35:04;;;;;;;15.00;4.88;;;2.70;99.90;;;;;;4920280;29;20092;-85
2022/04/03 06:37:30;;;;;;;11.80;4.88;;;2.80;99.90;;;;;;4925442;29;20057;-86
2022/04/03 06:39:56;;;;;;;21.85;4.57;;;2.80;99.90;;;;;;4940547;29;20096;-87
2022/04/03 06:42:22;;;;;;;13.82;5.05;;;2.80;99.90;;;;;;4925039;29;20081;-88
2022/04/03 06:44:48;;;;;;;14.73;4.30;;;2.80;99.90;;;;;;4919487;29;20069;-87
2022/04/03 06:47:14;;;;;;;12.75;4.75;;;2.90;99.90;;;;;;4918771;29;20033;-86
2022/04/03 06:49:40;;;;;;;14.20;5.10;;;2.80;99.90;;;;;;4922675;29;20076;-87
2022/04/03 06:52:10;;;;;;;12.88;4.60;;;2.80;99.90;;;;;;4906706;29;20045;-86
2022/04/03 06:54:36;;;;;;;13.48;5.65;;;2.90;99.90;;;;;;4906686;29;20088;-84
2022/04/03 06:57:03;;;;;;;17.00;5.13;;;3.00;99.90;;;;;;4922223;29;20025;-85
2022/04/03 06:59:29;;;;;;;13.75;4.10;;;3.00;99.90;;;;;;4921026;29;20096;-85
2022/04/03 07:01:55;;;;;;;15.30;4.55;;;3.00;99.90;;;;;;4906101;29;20017;-87
2022/04/03 07:04:21;;;;;;;11.93;4.20;;;3.20;99.90;;;;;;4904153;29;20029;-87
2022/04/03 07:06:47;;;;;;;14.13;4.57;;;3.20;99.90;;;;;;4902465;29;20127;-86
2022/04/03 07:09:13;;;;;;;15.65;5.43;;;3.30;99.90;;;;;;4923983;29;20035;-87
2022/04/03 07:11:39;;;;;;;18.75;4.78;;;3.50;99.90;;;;;;4924427;29;20009;-88
2022/04/03 07:14:05;;;;;;;11.98;4.30;;;3.50;99.90;;;;;;4924309;29;20032;-87
2022/04/03 07:16:31;;;;;;;11.98;4.38;;;3.60;99.90;;;;;;4944382;23;20100;-86
2022/04/03 07:18:56;;;;;;;9.82;4.25;;;3.60;99.90;;;;;;4938102;29;20024;-87
2022/04/03 07:21:23;;;;;;;9.77;4.35;;;3.60;99.90;;;;;;4925066;29;20021;-85
2022/04/03 07:23:49;;;;;;;9.10;4.55;;;3.60;99.90;;;;;;4924520;29;20064;-86
2022/04/03 07:26:15;;;;;;;14.27;5.05;;;3.50;99.90;;;;;;4925296;29;20329;-87
2022/04/03 07:28:41;;;;;;;15.00;4.63;;;3.60;99.90;;;;;;4924541;29;20009;-86
2022/04/03 07:31:08;;;;;;;8.18;4.18;;;3.60;99.90;;;;;;4924452;29;20033;-88
2022/04/03 07:33:35;;;;;;;11.00;4.10;;;3.60;99.90;;;;;;4924463;29;20021;-87
2022/04/03 07:36:01;;;;;;;17.52;4.07;;;3.60;99.90;;;;;;4909063;29;20024;-88
2022/04/03 07:38:27;;;;;;;11.10;4.55;;;3.70;99.90;;;;;;5023055;23;20104;-87
2022/04/03 07:40:56;;;;;;;11.63;4.38;;;3.70;99.90;;;;;;4922916;29;20049;-87
2022/04/03 07:43:23;;;;;;;7.43;3.88;;;3.80;99.90;;;;;;4923360;29;20061;-87
2022/04/03 07:45:49;;;;;;;10.35;4.68;;;4.00;99.90;;;;;;4924109;29;20048;-86
2022/04/03 07:48:19;;;;;;;16.10;4.93;;;4.40;99.90;;;;;;4908728;29;20025;-87
2022/04/03 07:50:45;;;;;;;14.80;4.82;;;4.60;99.90;;;;;;4924054;29;20012;-86
2022/04/03 07:55:47;;;;;;;11.35;4.70;;;4.80;99.90;;;;;;4689804;27;20033;-87
2022/04/03 07:58:13;;;;;;;13.68;4.53;;;4.90;99.90;;;;;;4923859;29;20048;-87
2022/04/03 08:00:39;;;;;;;13.57;4.38;;;5.20;99.60;;;;;;4906076;29;20013;-88
2022/04/03 08:03:05;;;;;;;11.93;4.45;;;5.40;99.40;;;;;;4905963;29;20021;-86
2022/04/03 08:05:31;;;;;;;11.52;4.60;;;5.50;99.30;;;;;;4905831;29;20069;-88
2022/04/03 08:07:58;;;;;;;9.63;4.45;;;5.70;98.70;;;;;;4944287;23;20044;-87
2022/04/03 08:10:29;;;;;;;8.32;4.15;;;5.80;98.40;;;;;;4905639;29;20017;-88
2022/04/03 08:12:55;;;;;;;18.15;5.80;;;5.80;98.00;;;;;;4905330;29;20025;-88
2022/04/03 08:15:21;;;;;;;13.20;4.65;;;5.60;98.00;;;;;;4905023;29;20013;-88
2022/04/03 08:17:48;;;;;;;8.55;4.18;;;5.50;97.80;;;;;;4905077;29;20036;-87
2022/04/03 08:20:17;;;;;;;9.15;4.30;;;5.50;97.90;;;;;;4905761;29;20032;-87
2022/04/03 08:22:44;;;;;;;20.10;4.90;;;5.60;98.00;;;;;;4905830;29;20013;-89
2022/04/03 08:25:12;;;;;;;11.85;4.85;;;5.50;96.90;;;;;;4905180;29;20024;-86
2022/04/03 08:27:49;;;;;;;11.38;4.03;;;5.50;96.90;;;;;;4905029;29;20088;-87
2022/04/03 08:30:19;;;;;;;11.70;4.65;;;5.40;96.30;;;;;;4904410;29;20036;-87
2022/04/03 08:32:46;;;;;;;9.07;4.20;;;5.50;96.30;;;;;;4900974;29;20064;-87
2022/04/03 08:35:14;;;;;;;11.20;4.45;;;5.70;96.50;;;;;;4898465;29;20024;-88
2022/04/03 08:37:41;;;;;;;10.65;3.72;;;5.70;95.30;;;;;;4902634;29;20029;-89
2022/04/03 08:40:08;;;;;;;9.95;4.35;;;5.70;94.90;;;;;;4900209;29;20085;-87
2022/04/03 08:42:35;;;;;;;8.70;4.32;;;5.50;95.00;;;;;;4902741;29;20056;-89
2022/04/03 08:45:02;;;;;;;11.70;4.65;;;5.40;95.10;;;;;;4899974;29;20053;-88
2022/04/03 08:50:02;;;;;;;7.90;3.75;;;5.40;95.20;;;;;;4918693;29;20032;-88
2022/04/03 08:52:32;;;;;;;10.82;4.05;;;5.50;95.40;;;;;;4919926;29;20068;-87
2022/04/03 08:55:04;;;;;;;10.90;4.30;;;5.80;94.90;;;;;;4919941;29;20064;-87
2022/04/03 08:57:30;;;;;;;16.88;4.47;;;5.80;94.60;;;;;;4904676;29;20040;-86
2022/04/03 08:59:56;;;;;;;9.48;4.47;;;5.80;94.30;;;;;;4919769;29;20060;-88
2022/04/03 09:02:22;;;;;;;11.63;4.13;;;5.80;94.40;;;;;;4919774;29;20017;-88
2022/04/03 09:04:48;;;;;;;8.60;4.88;;;5.80;94.50;;;;;;4920833;29;20037;-87
2022/04/03 09:07:19;;;;;;;11.68;5.30;;;5.80;94.50;;;;;;4922121;29;20096;-87
2022/04/03 09:09:55;;;;;;;15.93;5.13;;;6.00;94.50;;;;;;4923009;29;20013;-87
2022/04/03 09:12:21;;;;;;;11.13;5.43;;;6.30;94.40;;;;;;4907075;29;20096;-86
2022/04/03 09:14:55;;;;;;;13.57;5.20;;;6.60;93.60;;;;;;4935814;23;20013;-87
2022/04/03 09:17:40;;;;;;;12.48;5.10;;;6.70;93.30;;;;;;4941701;29;20059;-87
2022/04/03 09:20:07;;;;;;;15.18;5.18;;;6.70;92.50;;;;;;4925555;29;20024;-87
2022/04/03 09:22:36;;;;;;;10.05;4.85;;;6.80;92.20;;;;;;4906557;29;20029;-87
2022/04/03 09:25:06;;;;;;;10.93;5.25;;;6.80;92.20;;;;;;4923008;29;20035;-87
2022/04/03 09:27:34;;;;;;;10.32;5.28;;;7.00;92.00;;;;;;4907190;29;20037;-88
2022/04/03 09:30:05;;;;;;;9.50;5.18;;;7.10;92.00;;;;;;4922562;29;20029;-88
2022/04/03 09:32:31;;;;;;;13.70;5.22;;;7.00;92.20;;;;;;4922438;29;20051;-89
2022/04/03 09:37:59;;;;;;;14.65;5.63;;;7.80;91.40;;;;;;4920931;29;20054;-89
2022/04/03 09:40:31;;;;;;;10.73;5.30;;;7.90;90.90;;;;;;4905501;29;20045;-88
2022/04/03 09:45:33;;;;;;;11.65;5.57;;;7.30;91.40;;;;;;4970022;23;20055;-88
2022/04/03 09:47:59;;;;;;;11.50;5.25;;;7.00;91.80;;;;;;4940848;29;20099;-88
2022/04/03 09:50:25;;;;;;;18.20;5.65;;;7.10;91.80;;;;;;4939784;29;20016;-88
2022/04/03 09:52:54;;;;;;;11.65;5.25;;;7.00;92.20;;;;;;4941394;29;20020;-88
2022/04/03 09:55:24;;;;;;;10.82;5.75;;;7.10;91.80;;;;;;4924907;29;20016;-88
2022/04/03 09:58:03;;;;;;;16.20;6.25;;;7.10;91.90;;;;;;4922864;29;20032;-88
2022/04/03 10:00:41;;;;;;;16.80;5.65;;;6.90;91.90;;;;;;4937933;29;20035;-88
2022/04/03 10:03:11;;;;;;;9.77;5.80;;;7.10;91.50;;;;;;4937441;29;20032;-88
2022/04/03 10:05:37;;;;;;;13.32;5.53;;;7.30;91.40;;;;;;4936601;29;20036;-89
2022/04/03 10:08:04;;;;;;;11.60;6.20;;;7.30;91.80;;;;;;4921203;29;20064;-89
2022/04/03 10:10:33;;;;;;;15.55;5.57;;;7.50;91.70;;;;;;4942000;23;20056;-86
2022/04/03 10:12:59;;;;;;;12.90;6.15;;;7.60;91.40;;;;;;4931659;29;20550;-85
2022/04/03 10:15:27;;;;;;;14.30;5.88;;;7.30;91.80;;;;;;4928085;29;20028;-85
2022/04/03 10:17:53;;;;;;;11.35;5.78;;;7.70;91.90;;;;;;4925721;29;20505;-87
2022/04/03 10:20:19;;;;;;;17.80;6.00;;;7.80;90.70;;;;;;4910212;29;20107;-86
2022/04/03 10:22:51;;;;;;;10.93;6.38;;;7.40;90.40;;;;;;4929389;29;20552;-87
2022/04/03 10:25:31;;;;;;;12.30;6.32;;;7.20;90.90;;;;;;4928832;29;20072;-86
2022/04/03 10:28:01;;;;;;;12.35;6.07;;;7.50;90.50;;;;;;4927198;29;20114;-87
2022/04/03 10:30:42;;;;;;;12.88;6.47;;;7.30;90.60;;;;;;4926740;29;20131;-85
2022/04/03 10:33:20;;;;;;;12.57;6.10;;;7.20;90.90;;;;;;4932349;29;20028;-86
2022/04/03 10:36:01;;;;;;;14.07;6.85;;;6.90;90.60;;;;;;4912729;29;20133;-84
2022/04/03 10:38:45;;;;;;;14.25;6.32;;;6.60;91.10;;;;;;4925405;29;20032;-85
2022/04/03 10:41:31;;;;;;;12.40;6.60;;;6.20;91.20;;;;;;4926307;29;20409;-85
2022/04/03 10:44:29;;;;;;;12.27;6.93;;;6.10;91.60;;;;;;4926321;29;20028;-85
2022/04/03 10:47:04;;;;;;;14.00;6.55;;;6.10;92.30;;;;;;4884480;29;20493;-85
2022/04/03 10:49:37;;;;;;;14.23;6.55;;;6.00;92.80;;;;;;4926067;29;20072;-86
2022/04/03 10:52:08;;;;;;;15.05;6.63;;;6.30;93.00;;;;;;4927978;29;20032;-86
2022/04/03 10:54:52;;;;;;;12.35;6.20;;;7.40;92.30;;;;;;4924632;29;20111;-85
2022/04/03 10:57:44;;;;;;;15.25;6.68;;;9.60;89.00;;;;;;4926769;29;20036;-85
2022/04/03 11:00:13;;;;;;;15.43;5.85;;;10.50;84.50;;;;;;4928789;29;20040;-85
2022/04/03 11:02:39;;;;;;;12.50;6.40;;;9.40;85.50;;;;;;4934557;29;20032;-85
2022/04/03 11:05:27;;;;;;;12.38;5.55;;;8.40;87.60;;;;;;4941362;29;20032;-84
2022/04/03 11:07:54;;;;;;;15.05;5.72;;;7.60;88.80;;;;;;4940295;29;20562;-84
2022/04/03 11:10:56;;;;;;;11.98;6.00;;;7.20;90.30;;;;;;4932397;29;20043;-85
2022/04/03 11:13:32;;;;;;;12.70;5.57;;;6.70;90.40;;;;;;4927675;29;20035;-85
2022/04/03 11:16:04;;;;;;;9.60;6.28;;;6.40;90.60;;;;;;4941427;29;20036;-85
2022/04/03 11:18:36;;;;;;;18.00;6.32;;;6.00;91.40;;;;;;4942770;29;20028;-85
2022/04/03 11:21:07;;;;;;;12.43;6.38;;;5.60;92.10;;;;;;4942137;29;20032;-87
2022/04/03 11:23:35;;;;;;;10.35;6.05;;;5.60;92.70;;;;;;4936560;29;20491;-86
2022/04/03 11:26:03;;;;;;;10.23;5.97;;;5.50;92.70;;;;;;4930495;29;20040;-86
2022/04/03 11:28:31;;;;;;;11.27;6.00;;;5.50;93.00;;;;;;4931933;29;20032;-86
2022/04/03 11:30:57;;;;;;;11.60;6.25;;;5.50;92.80;;;;;;4928804;29;20035;-86
2022/04/03 11:33:23;;;;;;;15.13;6.70;;;5.40;92.80;;;;;;4928636;29;20012;-85
2022/04/03 11:35:49;;;;;;;11.52;6.03;;;5.40;92.60;;;;;;4902058;29;20036;-85
2022/04/03 11:38:15;;;;;;;13.93;5.80;;;5.40;92.90;;;;;;4916305;29;20032;-85
2022/04/03 11:40:42;;;;;;;14.55;6.60;;;5.40;92.80;;;;;;4915121;29;20043;-88
2022/04/03 11:43:16;;;;;;;9.18;5.53;;;5.30;92.40;;;;;;4918120;29;20071;-88
2022/04/03 11:45:52;;;;;;;13.00;5.90;;;5.30;92.80;;;;;;4899890;29;20102;-85
2022/04/03 11:48:21;;;;;;;15.48;6.45;;;5.20;93.10;;;;;;4931666;29;20051;-87
2022/04/03 11:50:51;;;;;;;10.07;5.28;;;5.10;93.70;;;;;;4930940;29;20047;-86
2022/04/03 11:53:24;;;;;;;10.18;5.65;;;5.10;93.60;;;;;;4933793;29;20408;-84
2022/04/03 11:55:49;;;;;;;9.63;5.40;;;5.10;93.50;;;;;;4947379;29;20059;-85
2022/04/03 11:58:15;;;;;;;9.40;5.70;;;5.10;93.60;;;;;;4949357;29;20035;-85
2022/04/03 12:00:46;;;;;;;16.92;5.88;;;5.10;93.70;;;;;;4948553;29;20039;-85
2022/04/03 12:03:30;;;;;;;8.18;5.00;;;5.10;93.30;;;;;;4943675;29;20031;-84
2022/04/03 12:06:17;;;;;;;9.30;5.30;;;5.10;93.50;;;;;;4944786;29;20031;-84
2022/04/03 12:08:48;;;;;;;8.65;4.75;;;5.10;93.70;;;;;;4920896;29;20044;-84
2022/04/03 12:11:20;;;;;;;7.10;4.55;;;5.20;93.50;;;;;;4909792;29;20540;-82
2022/04/03 12:13:46;;;;;;;11.45;5.50;;;5.40;93.50;;;;;;4918541;29;20033;-83
2022/04/03 12:16:20;;;;;;;11.02;5.10;;;5.60;93.40;;;;;;4935919;29;20016;-81
2022/04/03 12:18:53;;;;;;;8.02;5.40;;;5.70;93.20;;;;;;4939500;29;20044;-85
2022/04/03 12:21:19;;;;;;;10.40;5.40;;;5.70;92.60;;;;;;4939000;29;20088;-84
2022/04/03 12:24:04;;;;;;;8.70;4.50;;;5.80;92.50;;;;;;4933030;29;20057;-83
2022/04/03 12:26:31;;;;;;;8.57;3.90;;;5.80;92.20;;;;;;4928300;29;20047;-83
2022/04/03 12:28:57;;;;;;;6.60;4.50;;;5.60;91.90;;;;;;4935349;29;20024;-83
2022/04/03 12:31:30;;;;;;;9.02;4.03;;;5.60;92.00;;;;;;4940917;29;20027;-83
2022/04/03 12:34:05;;;;;;;10.38;4.85;;;5.70;91.90;;;;;;4941565;29;20043;-82
2022/04/03 12:36:41;;;;;;;7.45;4.25;;;5.80;91.60;;;;;;4940017;29;20059;-83
2022/04/03 12:39:41;;;;;;;10.05;4.55;;;5.80;91.70;;;;;;4933400;29;20024;-83
2022/04/03 12:42:20;;;;;;;10.60;4.57;;;6.00;91.60;;;;;;4939064;29;20488;-83
2022/04/03 12:44:56;;;;;;;8.02;4.25;;;6.10;91.30;;;;;;4940492;29;20047;-84
2022/04/03 12:47:32;;;;;;;10.40;4.38;;;6.20;91.50;;;;;;4934974;29;20036;-85
2022/04/03 12:50:07;;;;;;;7.40;4.55;;;6.40;90.70;;;;;;4932054;29;20066;-84
2022/04/03 12:52:39;;;;;;;8.30;4.25;;;6.30;90.20;;;;;;4931091;29;20016;-83
2022/04/03 12:55:29;;;;;;;12.13;4.35;;;6.60;89.50;;;;;;4933815;29;20068;-84
2022/04/03 13:00:55;;;;;;;6.97;3.87;;;7.40;89.20;;;;;;4938455;29;20211;-84
2022/04/03 13:03:42;;;;;;;9.82;4.00;;;8.90;87.30;;;;;;4934356;29;20044;-83
2022/04/03 13:06:08;;;;;;;9.45;4.53;;;10.90;83.40;;;;;;4933868;29;20028;-84
2022/04/03 13:08:51;;;;;;;10.02;4.05;;;12.80;78.50;;;;;;4940713;29;20024;-82